createdAt,value
2019-01-30T00:01:05.245Z,76649.10
2019-01-30T00:03:36.459Z,76651.11
2019-01-30T00:06:08.119Z,76633.02
2019-01-30T00:08:39.374Z,76630.00
2019-01-30T00:11:10.620Z,76616.94
2019-01-30T00:13:41.898Z,76614.93
2019-01-30T00:16:13.070Z,76602.87
2019-01-30T00:18:44.355Z,76601.86
2019-01-30T00:21:15.571Z,76592.81
2019-01-30T00:23:46.765Z,76586.78
2019-01-30T00:26:18.141Z,76592.81
2019-01-30T00:28:49.420Z,76591.81
2019-01-30T00:31:20.731Z,76600.86
2019-01-30T00:33:51.978Z,76577.73
2019-01-30T00:36:23.352Z,76585.78
2019-01-30T00:38:54.594Z,76579.75
2019-01-30T00:41:25.907Z,76576.73
2019-01-30T00:43:57.144Z,76582.77
2019-01-30T00:46:28.390Z,76583.77
2019-01-30T00:48:59.667Z,76576.73
2019-01-30T00:51:30.941Z,76577.73
2019-01-30T00:54:02.128Z,76572.72
2019-01-30T00:56:33.348Z,76568.70
2019-01-30T00:59:04.605Z,76566.69
2019-01-30T01:01:35.843Z,76566.69
2019-01-30T01:04:07.148Z,76554.63
2019-01-30T01:06:38.512Z,76565.68
2019-01-30T01:09:11.987Z,76574.72
2019-01-30T01:11:43.198Z,76572.72
2019-01-30T01:14:14.476Z,76573.72
2019-01-30T01:16:45.784Z,76570.70
2019-01-30T01:19:17.066Z,76570.70
2019-01-30T01:21:48.391Z,76580.75
2019-01-30T01:24:19.647Z,76579.75
2019-01-30T01:26:50.962Z,76591.81
2019-01-30T01:29:22.242Z,76586.78
2019-01-30T01:31:53.444Z,76589.80
2019-01-30T01:34:24.779Z,76589.80
2019-01-30T01:36:56.016Z,76595.83
2019-01-30T01:39:27.315Z,76605.88
2019-01-30T01:41:58.567Z,76616.94
2019-01-30T01:44:29.819Z,76624.98
2019-01-30T01:47:01.059Z,76619.95
2019-01-30T01:49:32.367Z,76619.95
2019-01-30T01:52:03.606Z,76610.91
2019-01-30T01:54:34.863Z,76611.91
2019-01-30T01:57:06.218Z,76618.95
2019-01-30T01:59:37.461Z,76621.96
2019-01-30T02:02:08.916Z,76605.88
2019-01-30T02:04:40.161Z,76615.94
2019-01-30T02:07:11.325Z,76605.88
2019-01-30T02:09:42.543Z,76609.91
2019-01-30T02:12:13.826Z,76614.93
2019-01-30T02:14:45.046Z,76620.95
2019-01-30T02:17:16.319Z,76615.94
2019-01-30T02:19:47.706Z,76614.93
2019-01-30T02:22:18.909Z,76611.91
2019-01-30T02:24:50.155Z,76613.92
2019-01-30T02:27:21.444Z,76616.94
2019-01-30T02:29:52.592Z,76616.94
2019-01-30T02:32:23.805Z,76622.97
2019-01-30T02:34:55.079Z,76613.92
2019-01-30T02:37:26.348Z,76610.91
2019-01-30T02:39:57.629Z,76618.95
2019-01-30T02:42:28.839Z,76611.91
2019-01-30T02:45:00.210Z,76615.94
2019-01-30T02:47:31.442Z,76602.87
2019-01-30T02:50:02.770Z,76606.89
2019-01-30T02:52:33.928Z,76596.84
2019-01-30T02:55:06.158Z,76597.84
2019-01-30T02:57:37.309Z,76601.86
2019-01-30T03:00:30.516Z,76593.82
2019-01-30T03:03:01.799Z,76586.78
2019-01-30T03:05:33.651Z,76581.76
2019-01-30T03:08:04.985Z,76574.72
2019-01-30T03:10:36.289Z,76562.66
2019-01-30T03:13:07.670Z,76571.70
2019-01-30T03:15:38.941Z,76572.72
2019-01-30T03:18:10.128Z,76585.78
2019-01-30T03:20:41.374Z,76579.75
2019-01-30T03:23:12.597Z,76570.70
2019-01-30T03:25:43.857Z,76568.70
2019-01-30T03:28:15.066Z,76564.67
2019-01-30T03:30:46.329Z,76576.73
2019-01-30T03:33:17.557Z,76579.75
2019-01-30T03:35:48.806Z,76598.84
2019-01-30T03:38:19.993Z,76605.88
2019-01-30T03:40:51.253Z,76592.81
2019-01-30T03:43:22.484Z,76588.80
2019-01-30T03:45:53.672Z,76585.78
2019-01-30T03:48:25.002Z,76587.79
2019-01-30T03:50:56.270Z,76589.80
2019-01-30T03:53:27.534Z,76599.85
2019-01-30T03:55:58.722Z,76595.83
2019-01-30T03:58:29.892Z,76597.84
2019-01-30T04:01:01.190Z,76591.81
2019-01-30T04:03:32.457Z,76582.77
2019-01-30T04:06:03.703Z,76584.77
2019-01-30T04:08:34.931Z,76566.69
2019-01-30T04:11:06.239Z,76558.64
2019-01-30T04:13:37.546Z,76562.66
2019-01-30T04:16:08.885Z,76556.63
2019-01-30T04:18:40.231Z,76559.65
2019-01-30T04:21:11.410Z,76552.61
2019-01-30T04:23:42.756Z,76537.53
2019-01-30T04:26:14.024Z,76530.50
2019-01-30T04:28:45.207Z,76538.54
2019-01-30T04:31:16.386Z,76528.49
2019-01-30T04:33:47.658Z,76530.50
2019-01-30T04:36:18.918Z,76530.50
2019-01-30T04:38:50.104Z,76518.44
2019-01-30T04:41:21.392Z,76522.46
2019-01-30T04:43:52.546Z,76526.48
2019-01-30T04:46:23.850Z,76519.44
2019-01-30T04:48:55.097Z,76526.48
2019-01-30T04:51:26.424Z,76519.44
2019-01-30T04:53:57.615Z,76533.52
2019-01-30T04:56:28.919Z,76530.50
2019-01-30T04:59:00.259Z,76507.38
2019-01-30T05:01:31.448Z,76509.39
2019-01-30T05:04:02.698Z,76514.42
2019-01-30T05:06:34.025Z,76503.36
2019-01-30T05:09:08.888Z,76495.32
2019-01-30T05:11:40.157Z,76507.38
2019-01-30T05:14:11.345Z,76494.31
2019-01-30T05:16:42.647Z,76490.30
2019-01-30T05:19:13.896Z,76487.28
2019-01-30T05:21:45.234Z,76489.30
2019-01-30T05:24:16.383Z,76490.30
2019-01-30T05:26:47.776Z,76498.34
2019-01-30T05:29:18.933Z,76498.34
2019-01-30T05:32:00.638Z,76493.31
2019-01-30T05:34:23.126Z,76487.28
2019-01-30T05:36:54.376Z,76489.30
2019-01-30T05:39:25.531Z,76491.30
2019-01-30T05:41:56.828Z,76491.30
2019-01-30T05:44:28.070Z,76502.36
2019-01-30T05:46:59.278Z,76501.36
2019-01-30T05:49:30.605Z,76500.34
2019-01-30T05:52:01.887Z,76494.31
2019-01-30T05:54:33.158Z,76491.30
2019-01-30T05:57:04.431Z,76487.28
2019-01-30T05:59:35.726Z,76483.27
2019-01-30T06:02:12.101Z,76486.28
2019-01-30T06:04:40.021Z,76490.30
2019-01-30T06:07:11.180Z,76493.31
2019-01-30T06:09:42.454Z,76490.30
2019-01-30T06:12:13.710Z,76497.33
2019-01-30T06:14:45.024Z,76476.23
2019-01-30T06:17:16.374Z,76481.25
2019-01-30T06:19:47.715Z,76488.29
2019-01-30T06:22:19.017Z,76479.24
2019-01-30T06:24:50.371Z,76475.22
2019-01-30T06:27:21.599Z,76478.23
2019-01-30T06:29:52.880Z,76486.28
2019-01-30T06:32:24.145Z,76483.27
2019-01-30T06:34:56.702Z,76478.23
2019-01-30T06:37:28.231Z,76486.28
2019-01-30T06:39:59.522Z,76486.28
2019-01-30T06:42:30.784Z,76483.27
2019-01-30T06:45:02.039Z,76483.27
2019-01-30T06:47:33.248Z,76487.28
2019-01-30T06:50:04.852Z,76479.24
2019-01-30T06:52:37.296Z,76482.26
2019-01-30T06:55:08.964Z,76486.28
2019-01-30T06:57:40.329Z,76478.23
2019-01-30T07:00:18.786Z,76474.22
2019-01-30T07:02:50.137Z,76482.26
2019-01-30T07:05:21.641Z,76471.20
2019-01-30T07:07:52.915Z,76474.22
2019-01-30T07:10:27.194Z,76472.20
2019-01-30T07:12:58.452Z,76464.17
2019-01-30T07:15:29.752Z,76471.20
2019-01-30T07:18:01.030Z,76480.25
2019-01-30T07:20:32.227Z,76483.27
2019-01-30T07:23:09.638Z,76481.25
2019-01-30T07:25:40.949Z,76487.28
2019-01-30T07:28:12.226Z,76488.29
2019-01-30T07:30:43.517Z,76502.36
2019-01-30T07:33:14.901Z,76495.32
2019-01-30T07:35:46.213Z,76496.33
2019-01-30T07:38:17.496Z,76498.34
2019-01-30T07:40:48.775Z,76480.25
2019-01-30T07:43:20.039Z,76487.28
2019-01-30T07:45:51.339Z,76483.27
2019-01-30T07:48:22.584Z,76476.23
2019-01-30T07:50:53.826Z,76474.22
2019-01-30T07:53:25.290Z,76467.18
2019-01-30T07:55:56.580Z,76465.17
2019-01-30T07:58:27.800Z,76462.16
2019-01-30T08:00:59.001Z,76447.08
2019-01-30T08:03:30.250Z,76450.09
2019-01-30T08:06:01.566Z,76447.08
2019-01-30T08:08:32.741Z,76462.16
2019-01-30T08:11:03.979Z,76446.08
2019-01-30T08:13:35.168Z,76446.08
2019-01-30T08:16:06.470Z,76446.08
2019-01-30T08:18:37.697Z,76443.06
2019-01-30T08:21:08.931Z,76439.04
2019-01-30T08:23:40.268Z,76438.03
2019-01-30T08:26:11.647Z,76416.93
2019-01-30T08:28:42.882Z,76440.05
2019-01-30T08:31:14.218Z,76436.03
2019-01-30T08:33:45.454Z,76414.92
2019-01-30T08:36:16.712Z,76420.95
2019-01-30T08:38:49.188Z,76414.92
2019-01-30T08:41:20.502Z,76408.89
2019-01-30T08:43:51.690Z,76405.88
2019-01-30T08:46:31.155Z,76400.84
2019-01-30T08:49:12.157Z,76400.84
2019-01-30T08:51:45.093Z,76395.83
2019-01-30T08:54:32.902Z,76390.80
2019-01-30T08:57:06.227Z,76398.84
2019-01-30T08:59:41.616Z,76388.79
2019-01-30T09:02:14.334Z,76384.77
2019-01-30T09:04:47.200Z,76379.74
2019-01-30T09:07:18.660Z,76392.81
2019-01-30T09:10:06.202Z,76375.72
2019-01-30T09:12:37.476Z,76382.76
2019-01-30T09:15:10.755Z,76381.75
2019-01-30T09:17:42.029Z,76384.77
2019-01-30T09:20:19.329Z,76381.75
2019-01-30T09:22:50.609Z,76364.67
2019-01-30T09:25:24.731Z,76374.72
2019-01-30T09:27:55.979Z,76350.59
2019-01-30T09:30:33.784Z,76347.58
2019-01-30T09:33:06.656Z,76333.52
2019-01-30T09:35:56.897Z,76350.59
2019-01-30T09:38:28.119Z,76348.59
2019-01-30T09:40:59.370Z,76347.58
2019-01-30T09:43:30.671Z,76369.70
2019-01-30T09:46:01.917Z,76363.66
2019-01-30T09:48:33.214Z,76364.67
2019-01-30T09:51:04.432Z,76384.77
2019-01-30T09:53:35.713Z,76372.70
2019-01-30T09:56:07.067Z,76366.68
2019-01-30T09:58:38.342Z,76369.70
2019-01-30T10:01:09.694Z,76360.65
2019-01-30T10:03:40.910Z,76373.72
2019-01-30T10:06:12.078Z,76391.80
2019-01-30T10:08:43.331Z,76361.66
2019-01-30T10:11:14.600Z,76397.83
2019-01-30T10:13:45.853Z,76420.95
2019-01-30T10:16:17.224Z,76413.91
2019-01-30T10:18:48.470Z,76419.95
2019-01-30T10:21:22.541Z,76416.93
2019-01-30T10:23:55.106Z,76397.83
2019-01-30T10:26:27.643Z,76380.75
2019-01-30T10:29:00.737Z,76393.81
2019-01-30T10:31:36.385Z,76373.72
2019-01-30T10:34:10.523Z,76374.72
2019-01-30T10:36:44.111Z,76362.66
2019-01-30T10:39:17.105Z,76360.65
2019-01-30T10:41:50.590Z,76348.59
2019-01-30T10:44:21.886Z,76328.48
2019-01-30T10:46:53.183Z,76327.48
2019-01-30T10:49:24.454Z,76329.49
2019-01-30T10:51:55.686Z,76329.49
2019-01-30T10:54:26.954Z,76345.58
2019-01-30T10:56:58.189Z,76372.70
2019-01-30T10:59:29.517Z,76353.61
2019-01-30T11:02:00.784Z,76357.63
2019-01-30T11:04:35.128Z,76341.55
2019-01-30T11:07:12.733Z,76337.53
2019-01-30T11:09:43.989Z,76337.53
2019-01-30T11:12:15.216Z,76354.62
2019-01-30T11:14:46.442Z,76363.66
2019-01-30T11:17:17.720Z,76337.53
2019-01-30T11:19:49.194Z,76340.55
2019-01-30T11:22:26.779Z,76352.61
2019-01-30T11:24:57.995Z,76324.47
2019-01-30T11:27:29.248Z,76341.55
2019-01-30T11:30:00.542Z,76330.50
2019-01-30T11:32:32.105Z,76338.53
2019-01-30T11:35:03.375Z,76357.63
2019-01-30T11:37:34.754Z,76362.66
2019-01-30T11:40:08.558Z,76361.66
2019-01-30T11:42:39.786Z,76369.70
2019-01-30T11:45:16.615Z,76371.70
2019-01-30T11:47:49.441Z,76373.72
2019-01-30T11:50:22.483Z,76351.60
2019-01-30T11:52:53.824Z,76362.66
2019-01-30T11:55:25.340Z,76362.66
2019-01-30T11:57:56.566Z,76354.62
2019-01-30T12:00:35.744Z,76351.60
2019-01-30T12:03:07.266Z,76366.68
2019-01-30T12:05:55.056Z,76363.66
2019-01-30T12:08:26.567Z,76337.53
2019-01-30T12:10:58.486Z,76367.69
2019-01-30T12:13:29.781Z,76356.63
2019-01-30T12:16:01.102Z,76351.60
2019-01-30T12:18:32.348Z,76326.48
2019-01-30T12:21:03.610Z,76311.41
2019-01-30T12:23:34.834Z,76289.30
2019-01-30T12:26:06.369Z,76273.21
2019-01-30T12:28:37.648Z,76262.16
2019-01-30T12:31:09.550Z,76262.16
2019-01-30T12:33:40.798Z,76253.11
2019-01-30T12:36:14.839Z,76274.22
2019-01-30T12:38:46.092Z,76235.02
2019-01-30T12:41:17.372Z,76244.06
2019-01-30T12:43:48.668Z,76220.95
2019-01-30T12:46:20.068Z,76246.08
2019-01-30T12:48:51.352Z,76253.11
2019-01-30T12:51:22.681Z,76264.17
2019-01-30T12:53:54.038Z,76249.09
2019-01-30T12:56:25.340Z,76269.19
2019-01-30T12:58:56.607Z,76274.22
2019-01-30T13:01:27.922Z,76260.15
2019-01-30T13:03:59.241Z,76270.20
2019-01-30T13:06:30.541Z,76274.22
2019-01-30T13:09:01.850Z,76277.23
2019-01-30T13:11:33.051Z,76277.23
2019-01-30T13:14:04.204Z,76265.17
2019-01-30T13:16:36.737Z,76271.20
2019-01-30T13:19:08.333Z,76261.16
2019-01-30T13:21:39.621Z,76269.19
2019-01-30T13:24:12.291Z,76294.31
2019-01-30T13:26:43.607Z,76291.30
2019-01-30T13:29:14.984Z,76263.16
2019-01-30T13:31:48.630Z,76276.23
2019-01-30T13:34:21.350Z,76275.22
2019-01-30T13:36:52.767Z,76295.32
2019-01-30T13:39:26.270Z,76303.36
2019-01-30T13:41:57.660Z,76321.45
2019-01-30T13:44:28.894Z,76302.36
2019-01-30T13:47:00.204Z,76322.45
2019-01-30T13:49:31.457Z,76312.41
2019-01-30T13:52:02.803Z,76307.38
2019-01-30T13:54:34.140Z,76332.51
2019-01-30T13:57:05.497Z,76337.53
2019-01-30T13:59:36.743Z,76329.49
2019-01-30T14:02:07.890Z,76337.53
2019-01-30T14:04:39.184Z,76333.52
2019-01-30T14:07:10.446Z,76331.50
2019-01-30T14:09:41.720Z,76337.53
2019-01-30T14:12:12.994Z,76350.59
2019-01-30T14:14:44.258Z,76334.52
2019-01-30T14:17:15.476Z,76343.56
2019-01-30T14:19:46.738Z,76359.64
2019-01-30T14:22:17.980Z,76354.62
2019-01-30T14:24:49.273Z,76358.64
2019-01-30T14:27:20.525Z,76339.55
2019-01-30T14:29:58.191Z,76321.45
2019-01-30T14:32:24.756Z,76314.42
2019-01-30T14:34:56.013Z,76336.53
2019-01-30T14:37:29.695Z,76351.60
2019-01-30T14:40:18.923Z,76326.48
2019-01-30T14:42:50.392Z,76316.42
2019-01-30T14:45:21.844Z,76338.53
2019-01-30T14:47:58.732Z,76360.65
2019-01-30T14:50:31.271Z,76349.59
2019-01-30T14:53:03.326Z,76368.69
2019-01-30T14:55:34.893Z,76381.75
2019-01-30T14:58:08.924Z,76393.81
2019-01-30T15:00:40.248Z,76393.81
2019-01-30T15:03:11.466Z,76398.84
2019-01-30T15:05:42.738Z,76415.92
2019-01-30T15:08:14.094Z,76422.95
2019-01-30T15:10:45.248Z,76435.02
2019-01-30T15:13:16.564Z,76449.09
2019-01-30T15:15:47.836Z,76447.08
2019-01-30T15:18:18.979Z,76443.06
2019-01-30T15:20:50.380Z,76432.01
2019-01-30T15:23:21.577Z,76422.95
2019-01-30T15:25:52.867Z,76425.97
2019-01-30T15:28:24.019Z,76422.95
2019-01-30T15:30:55.278Z,76426.98
2019-01-30T15:33:26.420Z,76436.03
2019-01-30T15:35:57.625Z,76434.02
2019-01-30T15:38:28.800Z,76433.02
2019-01-30T15:41:00.153Z,76433.02
2019-01-30T15:43:31.464Z,76451.09
2019-01-30T15:46:02.751Z,76444.06
2019-01-30T15:48:34.002Z,76444.06
2019-01-30T15:51:05.362Z,76438.03
2019-01-30T15:53:36.606Z,76447.08
2019-01-30T15:56:08.666Z,76458.14
2019-01-30T15:58:39.916Z,76458.14
2019-01-30T16:01:38.319Z,76439.04
2019-01-30T16:04:10.398Z,76452.11
2019-01-30T16:06:41.938Z,76462.16
2019-01-30T16:09:13.827Z,76461.16
2019-01-30T16:11:47.374Z,76466.17
2019-01-30T16:14:22.587Z,76464.17
2019-01-30T16:16:54.011Z,76468.19
2019-01-30T16:19:25.275Z,76482.26
2019-01-30T16:21:56.574Z,76473.21
2019-01-30T16:24:27.807Z,76472.20
2019-01-30T16:26:59.116Z,76483.27
2019-01-30T16:29:30.356Z,76488.29
2019-01-30T16:32:01.643Z,76485.27
2019-01-30T16:34:32.858Z,76491.30
2019-01-30T16:37:04.241Z,76494.31
2019-01-30T16:39:35.509Z,76491.30
2019-01-30T16:42:07.317Z,76499.34
2019-01-30T16:44:38.565Z,76459.14
2019-01-30T16:47:17.361Z,76460.15
2019-01-30T16:49:49.663Z,76460.15
2019-01-30T16:52:21.001Z,76479.24
2019-01-30T16:54:52.394Z,76470.20
2019-01-30T16:57:23.707Z,76470.20
2019-01-30T16:59:54.942Z,76472.20
2019-01-30T17:02:26.143Z,76451.09
2019-01-30T17:04:57.315Z,76467.18
2019-01-30T17:07:28.474Z,76473.21
2019-01-30T17:10:00.606Z,76459.14
2019-01-30T17:12:31.971Z,76487.28
2019-01-30T17:15:03.302Z,76489.30
2019-01-30T17:17:34.663Z,76503.36
2019-01-30T17:20:09.317Z,76510.40
2019-01-30T17:22:40.616Z,76510.40
2019-01-30T17:25:12.116Z,76502.36
2019-01-30T17:27:43.395Z,76496.33
2019-01-30T17:30:48.575Z,76509.39
2019-01-30T17:33:19.850Z,76506.38
2019-01-30T17:35:51.095Z,76522.46
2019-01-30T17:38:25.151Z,76508.39
2019-01-30T17:40:55.367Z,76520.45
2019-01-30T17:43:26.717Z,76532.52
2019-01-30T17:45:57.955Z,76518.44
2019-01-30T17:48:29.191Z,76527.48
2019-01-30T17:51:03.768Z,76526.48
2019-01-30T17:53:35.126Z,76526.48
2019-01-30T17:56:06.727Z,76527.48
2019-01-30T17:58:38.058Z,76528.49
2019-01-30T18:01:09.327Z,76536.53
2019-01-30T18:03:40.642Z,76527.48
2019-01-30T18:06:13.825Z,76539.55
2019-01-30T18:08:45.325Z,76534.52
2019-01-30T18:11:16.725Z,76536.53
2019-01-30T18:13:53.126Z,76532.52
2019-01-30T18:16:26.978Z,76523.47
2019-01-30T18:18:57.645Z,76534.52
2019-01-30T18:21:32.115Z,76530.50
2019-01-30T18:24:03.452Z,76526.48
2019-01-30T18:26:37.883Z,76536.53
2019-01-30T18:29:08.243Z,76543.56
2019-01-30T18:31:42.011Z,76531.50
2019-01-30T18:34:12.598Z,76536.53
2019-01-30T18:36:49.219Z,76532.52
2019-01-30T18:39:22.231Z,76536.53
2019-01-30T18:41:53.563Z,76533.52
2019-01-30T18:44:24.963Z,76542.56
2019-01-30T18:46:57.404Z,76538.54
2019-01-30T18:49:28.789Z,76542.56
2019-01-30T18:52:03.003Z,76537.53
2019-01-30T18:54:34.330Z,76542.56
2019-01-30T18:57:05.613Z,76545.58
2019-01-30T18:59:36.970Z,76554.63
2019-01-30T19:02:11.665Z,76557.64
2019-01-30T19:04:42.977Z,76553.62
2019-01-30T19:07:15.024Z,76557.64
2019-01-30T19:09:46.542Z,76568.70
2019-01-30T19:12:17.776Z,76548.59
2019-01-30T19:14:48.992Z,76570.70
2019-01-30T19:17:20.265Z,76566.69
2019-01-30T19:19:53.575Z,76570.70
2019-01-30T19:22:24.835Z,76576.73
2019-01-30T19:24:56.173Z,76588.80
2019-01-30T19:27:27.439Z,76578.74
2019-01-30T19:29:58.732Z,76580.75
2019-01-30T19:32:30.312Z,76583.77
2019-01-30T19:35:01.710Z,76579.75
2019-01-30T19:37:33.033Z,76579.75
2019-01-30T19:40:04.683Z,76588.80
2019-01-30T19:42:36.157Z,76591.81
2019-01-30T19:45:17.622Z,76581.76
2019-01-30T19:47:50.428Z,76588.80
2019-01-30T19:50:25.146Z,76590.80
2019-01-30T19:52:57.138Z,76597.84
2019-01-30T19:55:30.447Z,76591.81
2019-01-30T19:58:05.433Z,76595.83
2019-01-30T20:00:46.854Z,76593.82
2019-01-30T20:03:22.099Z,76596.84
2019-01-30T20:05:53.635Z,76595.83
2019-01-30T20:08:24.947Z,76598.84
2019-01-30T20:10:56.374Z,76589.80
2019-01-30T20:13:27.659Z,76581.76
2019-01-30T20:15:59.092Z,76578.74
2019-01-30T20:18:33.007Z,76576.73
2019-01-30T20:21:04.591Z,76575.73
2019-01-30T20:23:36.293Z,76570.70
2019-01-30T20:26:07.776Z,76579.75
2019-01-30T20:28:39.144Z,76585.78
2019-01-30T20:31:13.231Z,76572.72
2019-01-30T20:33:44.541Z,76588.80
2019-01-30T20:36:15.739Z,76573.72
2019-01-30T20:38:46.980Z,76566.69
2019-01-30T20:41:18.161Z,76569.70
2019-01-30T20:43:49.460Z,76576.73
2019-01-30T20:46:21.317Z,76570.70
2019-01-30T20:48:52.757Z,76576.73
2019-01-30T20:51:24.333Z,76565.68
2019-01-30T20:53:55.946Z,76579.75
2019-01-30T20:56:27.371Z,76578.74
2019-01-30T20:58:58.911Z,76580.75
2019-01-30T21:01:37.283Z,76576.73
2019-01-30T21:04:10.106Z,76587.79
2019-01-30T21:06:41.603Z,76570.70
2019-01-30T21:09:15.393Z,76577.73
2019-01-30T21:11:46.956Z,76577.73
2019-01-30T21:14:22.946Z,76550.60
2019-01-30T21:16:55.559Z,76569.70
2019-01-30T21:19:27.092Z,76572.72
2019-01-30T21:22:02.673Z,76581.76
2019-01-30T21:24:34.005Z,76579.75
2019-01-30T21:27:05.903Z,76576.73
2019-01-30T21:29:38.658Z,76581.76
2019-01-30T21:32:11.349Z,76579.75
2019-01-30T21:34:43.243Z,76576.73
2019-01-30T21:37:14.590Z,76569.70
2019-01-30T21:39:46.152Z,76564.67
2019-01-30T21:42:17.571Z,76574.72
2019-01-30T21:44:49.144Z,76580.75
2019-01-30T21:47:20.766Z,76581.76
2019-01-30T21:49:52.446Z,76585.78
2019-01-30T21:52:23.850Z,76588.80
2019-01-30T21:54:55.255Z,76586.78
2019-01-30T21:57:26.701Z,76576.73
2019-01-30T21:59:58.191Z,76585.78
2019-01-30T22:02:29.464Z,76584.77
2019-01-30T22:05:01.070Z,76588.80
2019-01-30T22:07:32.681Z,76570.70
2019-01-30T22:10:04.603Z,76588.80
2019-01-30T22:12:36.144Z,76572.72
2019-01-30T22:15:09.804Z,76586.78
2019-01-30T22:17:44.699Z,76594.83
2019-01-30T22:20:19.606Z,76590.80
2019-01-30T22:22:51.102Z,76586.78
2019-01-30T22:25:23.596Z,76584.77
2019-01-30T22:27:55.116Z,76582.77
2019-01-30T22:30:33.017Z,76574.72
2019-01-30T22:33:10.818Z,76588.80
2019-01-30T22:35:46.390Z,76577.73
2019-01-30T22:38:23.003Z,76592.81
2019-01-30T22:40:54.485Z,76590.80
2019-01-30T22:43:27.233Z,76590.80
2019-01-30T22:46:06.950Z,76572.72
2019-01-30T22:48:41.609Z,76597.84
2019-01-30T22:51:15.315Z,76597.84
2019-01-30T22:53:52.534Z,76601.86
2019-01-30T22:56:25.867Z,76588.80
2019-01-30T22:58:57.801Z,76592.81
2019-01-30T23:01:53.370Z,76603.88
2019-01-30T23:05:15.161Z,76611.91
2019-01-30T23:08:26.353Z,76613.92
2019-01-30T23:12:03.174Z,76619.95
2019-01-30T23:14:58.986Z,76622.97
2019-01-30T23:18:49.656Z,76640.05
2019-01-30T23:21:27.937Z,76649.10
2019-01-30T23:25:18.474Z,76662.17
2019-01-30T23:28:51.865Z,76655.13
2019-01-30T23:32:21.773Z,76667.19
2019-01-30T23:35:33.470Z,76679.25
2019-01-30T23:38:21.909Z,76680.27
2019-01-30T23:41:47.230Z,76688.30
2019-01-30T23:45:33.482Z,76690.31
2019-01-30T23:49:37.136Z,76689.30
2019-01-30T23:53:05.576Z,76692.32
2019-01-30T23:56:18.468Z,76671.21
